sensor_id;sensor_type;location;lat;lon;timestamp;P1;durP1;ratioP1;P2;durP2;ratioP2
39822;SDS011;25499;53.958;10.970;2023-11-19T07:55:20;26.88;;;13.13;;
39822;SDS011;25499;53.958;10.970;2023-11-19T07:57:47;26.60;;;10.60;;
39822;SDS011;25499;53.958;10.970;2023-11-19T08:00:14;35.90;;;12.68;;
39822;SDS011;25499;53.958;10.970;2023-11-19T08:02:42;29.77;;;13.32;;
39822;SDS011;25499;53.958;10.970;2023-11-19T08:05:09;33.75;;;13.63;;
39822;SDS011;25499;53.958;10.970;2023-11-19T08:07:36;35.25;;;13.65;;
39822;SDS011;25499;53.958;10.970;2023-11-19T08:10:07;37.33;;;13.60;;
39822;SDS011;25499;53.958;10.970;2023-11-19T08:12:37;29.92;;;14.32;;
39822;SDS011;25499;53.958;10.970;2023-11-19T08:15:04;32.88;;;14.63;;
39822;SDS011;25499;53.958;10.970;2023-11-19T08:17:32;35.50;;;13.90;;
39822;SDS011;25499;53.958;10.970;2023-11-19T08:19:59;31.70;;;13.82;;
39822;SDS011;25499;53.958;10.970;2023-11-19T08:22:26;36.25;;;15.20;;
39822;SDS011;25499;53.958;10.970;2023-11-19T08:24:55;38.08;;;15.70;;
39822;SDS011;25499;53.958;10.970;2023-11-19T08:27:22;35.25;;;14.32;;
39822;SDS011;25499;53.958;10.970;2023-11-19T08:29:54;44.20;;;16.02;;
39822;SDS011;25499;53.958;10.970;2023-11-19T08:32:22;34.65;;;13.93;;
39822;SDS011;25499;53.958;10.970;2023-11-19T08:34:48;36.40;;;13.48;;
39822;SDS011;25499;53.958;10.970;2023-11-19T08:37:15;35.78;;;13.70;;
39822;SDS011;25499;53.958;10.970;2023-11-19T08:39:43;31.35;;;13.40;;
39822;SDS011;25499;53.958;10.970;2023-11-19T08:42:10;33.85;;;13.07;;
39822;SDS011;25499;53.958;10.970;2023-11-19T08:44:37;33.22;;;13.50;;
39822;SDS011;25499;53.958;10.970;2023-11-19T08:47:05;37.67;;;14.75;;
39822;SDS011;25499;53.958;10.970;2023-11-19T08:49:32;34.97;;;14.68;;
39822;SDS011;25499;53.958;10.970;2023-11-19T08:52:00;44.90;;;14.80;;
39822;SDS011;25499;53.958;10.970;2023-11-19T08:54:28;35.05;;;14.20;;
39822;SDS011;25499;53.958;10.970;2023-11-19T08:56:54;42.55;;;13.88;;
39822;SDS011;25499;53.958;10.970;2023-11-19T08:59:21;43.85;;;13.98;;
39822;SDS011;25499;53.958;10.970;2023-11-19T09:01:49;38.40;;;13.55;;
39822;SDS011;25499;53.958;10.970;2023-11-19T09:04:17;42.63;;;14.18;;
39822;SDS011;25499;53.958;10.970;2023-11-19T09:06:47;38.42;;;13.45;;
39822;SDS011;25499;53.958;10.970;2023-11-19T09:09:14;38.67;;;14.05;;
39822;SDS011;25499;53.958;10.970;2023-11-19T09:11:41;48.78;;;14.30;;
39822;SDS011;25499;53.958;10.970;2023-11-19T09:14:08;38.55;;;13.50;;
39822;SDS011;25499;53.958;10.970;2023-11-19T09:16:35;32.70;;;12.13;;
39822;SDS011;25499;53.958;10.970;2023-11-19T09:19:01;36.17;;;11.13;;
39822;SDS011;25499;53.958;10.970;2023-11-19T09:21:30;43.60;;;12.13;;
39822;SDS011;25499;53.958;10.970;2023-11-19T09:23:56;44.25;;;11.77;;
39822;SDS011;25499;53.958;10.970;2023-11-19T09:26:23;44.35;;;11.80;;
39822;SDS011;25499;53.958;10.970;2023-11-19T09:28:50;37.60;;;11.32;;
39822;SDS011;25499;53.958;10.970;2023-11-19T09:31:17;43.28;;;11.05;;
39822;SDS011;25499;53.958;10.970;2023-11-19T09:33:44;40.92;;;10.65;;
39822;SDS011;25499;53.958;10.970;2023-11-19T09:36:11;36.55;;;9.80;;
39822;SDS011;25499;53.958;10.970;2023-11-19T09:38:42;38.58;;;10.55;;
39822;SDS011;25499;53.958;10.970;2023-11-19T09:41:09;54.63;;;9.83;;
39822;SDS011;25499;53.958;10.970;2023-11-19T09:43:38;40.50;;;10.73;;
39822;SDS011;25499;53.958;10.970;2023-11-19T09:46:06;47.05;;;9.23;;
39822;SDS011;25499;53.958;10.970;2023-11-19T09:48:37;46.40;;;9.63;;
39822;SDS011;25499;53.958;10.970;2023-11-19T09:51:06;41.25;;;8.55;;
39822;SDS011;25499;53.958;10.970;2023-11-19T09:53:33;44.78;;;8.32;;
39822;SDS011;25499;53.958;10.970;2023-11-19T09:56:03;68.75;;;9.50;;
39822;SDS011;25499;53.958;10.970;2023-11-19T09:58:30;57.78;;;8.15;;
39822;SDS011;25499;53.958;10.970;2023-11-19T10:01:00;48.15;;;7.53;;
39822;SDS011;25499;53.958;10.970;2023-11-19T10:03:28;55.10;;;7.00;;
39822;SDS011;25499;53.958;10.970;2023-11-19T10:05:59;44.80;;;6.72;;
39822;SDS011;25499;53.958;10.970;2023-11-19T10:08:30;48.78;;;6.82;;
39822;SDS011;25499;53.958;10.970;2023-11-19T10:10:57;40.92;;;6.47;;
39822;SDS011;25499;53.958;10.970;2023-11-19T10:13:27;41.60;;;6.13;;
39822;SDS011;25499;53.958;10.970;2023-11-19T10:15:56;47.90;;;6.35;;
39822;SDS011;25499;53.958;10.970;2023-11-19T10:18:24;40.80;;;6.22;;
39822;SDS011;25499;53.958;10.970;2023-11-19T10:20:52;37.30;;;5.20;;
39822;SDS011;25499;53.958;10.970;2023-11-19T10:23:20;36.50;;;5.30;;
39822;SDS011;25499;53.958;10.970;2023-11-19T10:25:47;31.45;;;4.45;;
39822;SDS011;25499;53.958;10.970;2023-11-19T10:28:15;32.50;;;4.40;;
39822;SDS011;25499;53.958;10.970;2023-11-19T10:30:44;26.20;;;4.00;;
39822;SDS011;25499;53.958;10.970;2023-11-19T10:33:11;23.88;;;3.67;;
39822;SDS011;25499;53.958;10.970;2023-11-19T10:35:51;27.38;;;4.15;;
39822;SDS011;25499;53.958;10.970;2023-11-19T10:38:20;27.88;;;3.75;;
39822;SDS011;25499;53.958;10.970;2023-11-19T10:40:47;36.28;;;4.80;;
39822;SDS011;25499;53.958;10.970;2023-11-19T10:43:14;38.10;;;5.03;;
39822;SDS011;25499;53.958;10.970;2023-11-19T10:45:41;26.75;;;4.32;;
39822;SDS011;25499;53.958;10.970;2023-11-19T10:48:09;38.50;;;5.20;;
39822;SDS011;25499;53.958;10.970;2023-11-19T10:50:38;40.50;;;5.40;;
39822;SDS011;25499;53.958;10.970;2023-11-19T10:53:06;36.83;;;4.97;;
39822;SDS011;25499;53.958;10.970;2023-11-19T10:55:35;40.17;;;5.18;;
39822;SDS011;25499;53.958;10.970;2023-11-19T10:58:04;36.15;;;4.72;;
39822;SDS011;25499;53.958;10.970;2023-11-19T11:00:34;41.78;;;5.25;;
39822;SDS011;25499;53.958;10.970;2023-11-19T11:03:05;42.33;;;6.18;;
39822;SDS011;25499;53.958;10.970;2023-11-19T11:05:37;33.30;;;4.68;;
39822;SDS011;25499;53.958;10.970;2023-11-19T11:08:06;28.85;;;4.53;;
39822;SDS011;25499;53.958;10.970;2023-11-19T11:10:35;35.75;;;4.65;;
39822;SDS011;25499;53.958;10.970;2023-11-19T11:13:16;41.60;;;5.13;;
39822;SDS011;25499;53.958;10.970;2023-11-19T11:15:44;31.55;;;3.92;;
39822;SDS011;25499;53.958;10.970;2023-11-19T11:18:13;38.15;;;5.32;;
39822;SDS011;25499;53.958;10.970;2023-11-19T11:20:40;30.88;;;4.03;;
39822;SDS011;25499;53.958;10.970;2023-11-19T11:23:19;30.92;;;4.55;;
39822;SDS011;25499;53.958;10.970;2023-11-19T11:26:08;30.05;;;4.70;;
39822;SDS011;25499;53.958;10.970;2023-11-19T11:28:56;27.27;;;3.80;;
39822;SDS011;25499;53.958;10.970;2023-11-19T11:31:30;32.80;;;4.68;;
39822;SDS011;25499;53.958;10.970;2023-11-19T11:37:10;31.45;;;4.38;;
39822;SDS011;25499;53.958;10.970;2023-11-19T11:39:45;23.38;;;3.78;;
39822;SDS011;25499;53.958;10.970;2023-11-19T11:42:30;29.55;;;3.92;;
39822;SDS011;25499;53.958;10.970;2023-11-19T11:45:01;21.23;;;3.28;;
39822;SDS011;25499;53.958;10.970;2023-11-19T11:50:52;17.25;;;3.17;;
39822;SDS011;25499;53.958;10.970;2023-11-19T11:53:20;10.60;;;2.83;;
39822;SDS011;25499;53.958;10.970;2023-11-19T11:55:56;18.88;;;3.28;;
39822;SDS011;25499;53.958;10.970;2023-11-19T11:58:25;13.82;;;2.80;;
39822;SDS011;25499;53.958;10.970;2023-11-19T12:00:57;15.95;;;3.05;;
39822;SDS011;25499;53.958;10.970;2023-11-19T12:03:26;16.58;;;2.80;;
39822;SDS011;25499;53.958;10.970;2023-11-19T12:05:55;12.65;;;2.38;;
39822;SDS011;25499;53.958;10.970;2023-11-19T12:10:56;17.65;;;3.13;;
39822;SDS011;25499;53.958;10.970;2023-11-19T12:13:24;19.77;;;3.25;;
39822;SDS011;25499;53.958;10.970;2023-11-19T12:16:07;21.92;;;3.58;;
39822;SDS011;25499;53.958;10.970;2023-11-19T12:18:35;19.30;;;3.22;;
39822;SDS011;25499;53.958;10.970;2023-11-19T12:21:09;19.02;;;3.72;;
39822;SDS011;25499;53.958;10.970;2023-11-19T12:23:43;16.70;;;3.13;;
39822;SDS011;25499;53.958;10.970;2023-11-19T12:29:02;14.88;;;2.75;;
39822;SDS011;25499;53.958;10.970;2023-11-19T12:31:33;15.57;;;3.58;;
39822;SDS011;25499;53.958;10.970;2023-11-19T12:34:08;19.25;;;3.05;;
39822;SDS011;25499;53.958;10.970;2023-11-19T12:36:39;19.88;;;3.67;;
39822;SDS011;25499;53.958;10.970;2023-11-19T12:39:07;18.73;;;3.58;;
39822;SDS011;25499;53.958;10.970;2023-11-19T12:41:48;16.27;;;3.95;;
39822;SDS011;25499;53.958;10.970;2023-11-19T12:44:17;20.90;;;3.90;;
39822;SDS011;25499;53.958;10.970;2023-11-19T12:46:44;22.30;;;3.65;;
39822;SDS011;25499;53.958;10.970;2023-11-19T12:49:11;19.55;;;2.85;;
39822;SDS011;25499;53.958;10.970;2023-11-19T12:51:42;23.95;;;3.30;;
39822;SDS011;25499;53.958;10.970;2023-11-19T12:54:10;22.35;;;3.55;;
39822;SDS011;25499;53.958;10.970;2023-11-19T12:56:38;23.38;;;3.45;;
39822;SDS011;25499;53.958;10.970;2023-11-19T12:59:10;27.90;;;4.03;;
39822;SDS011;25499;53.958;10.970;2023-11-19T13:01:38;28.98;;;3.72;;
39822;SDS011;25499;53.958;10.970;2023-11-19T13:04:16;25.00;;;3.90;;
39822;SDS011;25499;53.958;10.970;2023-11-19T13:06:45;22.30;;;3.60;;
39822;SDS011;25499;53.958;10.970;2023-11-19T13:09:21;22.40;;;3.35;;
39822;SDS011;25499;53.958;10.970;2023-11-19T13:11:49;25.55;;;3.22;;
39822;SDS011;25499;53.958;10.970;2023-11-19T13:14:17;23.63;;;3.65;;
39822;SDS011;25499;53.958;10.970;2023-11-19T13:16:45;25.80;;;3.70;;
39822;SDS011;25499;53.958;10.970;2023-11-19T13:19:13;21.55;;;3.25;;
39822;SDS011;25499;53.958;10.970;2023-11-19T13:21:41;28.92;;;4.32;;
39822;SDS011;25499;53.958;10.970;2023-11-19T13:24:12;21.67;;;3.35;;
39822;SDS011;25499;53.958;10.970;2023-11-19T13:26:39;30.20;;;4.03;;
39822;SDS011;25499;53.958;10.970;2023-11-19T13:29:06;28.48;;;4.15;;
39822;SDS011;25499;53.958;10.970;2023-11-19T13:31:35;28.42;;;4.45;;
39822;SDS011;25499;53.958;10.970;2023-11-19T13:34:03;23.45;;;3.85;;
39822;SDS011;25499;53.958;10.970;2023-11-19T13:36:32;22.58;;;3.42;;
39822;SDS011;25499;53.958;10.970;2023-11-19T13:39:01;31.42;;;3.85;;
39822;SDS011;25499;53.958;10.970;2023-11-19T13:41:29;27.70;;;3.83;;
39822;SDS011;25499;53.958;10.970;2023-11-19T13:43:56;25.40;;;4.22;;
39822;SDS011;25499;53.958;10.970;2023-11-19T13:46:23;27.75;;;3.78;;
39822;SDS011;25499;53.958;10.970;2023-11-19T13:48:50;27.88;;;4.57;;
39822;SDS011;25499;53.958;10.970;2023-11-19T13:51:17;28.85;;;4.18;;
39822;SDS011;25499;53.958;10.970;2023-11-19T13:53:44;34.05;;;4.32;;
39822;SDS011;25499;53.958;10.970;2023-11-19T13:56:11;36.55;;;4.22;;
39822;SDS011;25499;53.958;10.970;2023-11-19T13:58:39;33.78;;;4.18;;
39822;SDS011;25499;53.958;10.970;2023-11-19T14:01:07;28.83;;;4.20;;
39822;SDS011;25499;53.958;10.970;2023-11-19T14:03:34;34.00;;;4.53;;
39822;SDS011;25499;53.958;10.970;2023-11-19T14:06:01;33.63;;;4.55;;
39822;SDS011;25499;53.958;10.970;2023-11-19T14:08:28;37.75;;;6.05;;
39822;SDS011;25499;53.958;10.970;2023-11-19T14:10:54;34.90;;;4.70;;
39822;SDS011;25499;53.958;10.970;2023-11-19T14:13:24;31.05;;;4.32;;
39822;SDS011;25499;53.958;10.970;2023-11-19T14:15:53;32.45;;;3.63;;
39822;SDS011;25499;53.958;10.970;2023-11-19T14:18:19;37.13;;;3.95;;
39822;SDS011;25499;53.958;10.970;2023-11-19T14:20:47;37.42;;;5.00;;
39822;SDS011;25499;53.958;10.970;2023-11-19T14:23:14;39.60;;;4.75;;
39822;SDS011;25499;53.958;10.970;2023-11-19T14:25:41;35.03;;;4.72;;
39822;SDS011;25499;53.958;10.970;2023-11-19T14:28:11;43.08;;;5.05;;
39822;SDS011;25499;53.958;10.970;2023-11-19T14:30:38;44.97;;;4.82;;
39822;SDS011;25499;53.958;10.970;2023-11-19T14:33:08;36.25;;;5.13;;
39822;SDS011;25499;53.958;10.970;2023-11-19T14:35:34;29.88;;;4.22;;
39822;SDS011;25499;53.958;10.970;2023-11-19T14:38:01;39.92;;;4.80;;
39822;SDS011;25499;53.958;10.970;2023-11-19T14:40:30;34.92;;;4.32;;
39822;SDS011;25499;53.958;10.970;2023-11-19T14:42:58;39.28;;;4.75;;
39822;SDS011;25499;53.958;10.970;2023-11-19T14:45:24;42.58;;;5.28;;
39822;SDS011;25499;53.958;10.970;2023-11-19T14:47:51;41.75;;;5.57;;
39822;SDS011;25499;53.958;10.970;2023-11-19T14:50:20;35.38;;;4.95;;
39822;SDS011;25499;53.958;10.970;2023-11-19T14:52:47;35.95;;;5.00;;
39822;SDS011;25499;53.958;10.970;2023-11-19T14:55:16;35.40;;;5.10;;
39822;SDS011;25499;53.958;10.970;2023-11-19T14:57:43;38.88;;;5.65;;
39822;SDS011;25499;53.958;10.970;2023-11-19T15:00:12;39.35;;;5.32;;
39822;SDS011;25499;53.958;10.970;2023-11-19T15:02:40;35.10;;;4.53;;
39822;SDS011;25499;53.958;10.970;2023-11-19T15:05:07;39.28;;;4.65;;
39822;SDS011;25499;53.958;10.970;2023-11-19T15:07:37;39.95;;;4.82;;
39822;SDS011;25499;53.958;10.970;2023-11-19T15:10:05;37.75;;;5.25;;
39822;SDS011;25499;53.958;10.970;2023-11-19T15:12:37;35.63;;;5.18;;
39822;SDS011;25499;53.958;10.970;2023-11-19T15:15:06;32.33;;;4.78;;
39822;SDS011;25499;53.958;10.970;2023-11-19T15:17:35;37.20;;;5.67;;
39822;SDS011;25499;53.958;10.970;2023-11-19T15:20:03;40.05;;;6.07;;
39822;SDS011;25499;53.958;10.970;2023-11-19T15:22:30;35.08;;;4.85;;
39822;SDS011;25499;53.958;10.970;2023-11-19T15:24:59;36.42;;;5.45;;
39822;SDS011;25499;53.958;10.970;2023-11-19T15:27:26;41.58;;;4.72;;
39822;SDS011;25499;53.958;10.970;2023-11-19T15:29:54;30.85;;;3.97;;
39822;SDS011;25499;53.958;10.970;2023-11-19T15:32:21;31.52;;;3.80;;
39822;SDS011;25499;53.958;10.970;2023-11-19T15:34:48;26.45;;;3.92;;
39822;SDS011;25499;53.958;10.970;2023-11-19T15:37:15;23.02;;;3.53;;
39822;SDS011;25499;53.958;10.970;2023-11-19T15:39:41;26.50;;;3.50;;
39822;SDS011;25499;53.958;10.970;2023-11-19T15:42:10;29.40;;;4.03;;
39822;SDS011;25499;53.958;10.970;2023-11-19T15:44:37;26.98;;;3.80;;
39822;SDS011;25499;53.958;10.970;2023-11-19T15:47:05;33.40;;;3.70;;
39822;SDS011;25499;53.958;10.970;2023-11-19T15:49:32;23.23;;;3.85;;
39822;SDS011;25499;53.958;10.970;2023-11-19T15:52:01;37.58;;;4.55;;
39822;SDS011;25499;53.958;10.970;2023-11-19T15:54:30;31.42;;;4.65;;
39822;SDS011;25499;53.958;10.970;2023-11-19T15:56:57;35.78;;;4.47;;
39822;SDS011;25499;53.958;10.970;2023-11-19T15:59:25;27.55;;;3.85;;
39822;SDS011;25499;53.958;10.970;2023-11-19T16:01:52;38.55;;;4.15;;
39822;SDS011;25499;53.958;10.970;2023-11-19T16:04:19;27.83;;;3.53;;
39822;SDS011;25499;53.958;10.970;2023-11-19T16:06:48;34.25;;;4.18;;
39822;SDS011;25499;53.958;10.970;2023-11-19T16:09:14;29.05;;;4.03;;
39822;SDS011;25499;53.958;10.970;2023-11-19T16:11:44;31.50;;;3.75;;
39822;SDS011;25499;53.958;10.970;2023-11-19T16:14:13;35.60;;;3.70;;
39822;SDS011;25499;53.958;10.970;2023-11-19T16:16:42;27.10;;;4.13;;
39822;SDS011;25499;53.958;10.970;2023-11-19T16:19:09;32.28;;;4.97;;
39822;SDS011;25499;53.958;10.970;2023-11-19T16:21:36;32.72;;;4.20;;
39822;SDS011;25499;53.958;10.970;2023-11-19T16:24:03;25.17;;;3.05;;
39822;SDS011;25499;53.958;10.970;2023-11-19T16:26:30;30.90;;;3.72;;
39822;SDS011;25499;53.958;10.970;2023-11-19T16:28:58;29.58;;;4.70;;
39822;SDS011;25499;53.958;10.970;2023-11-19T16:31:25;25.35;;;3.70;;
39822;SDS011;25499;53.958;10.970;2023-11-19T16:33:53;28.85;;;3.50;;
39822;SDS011;25499;53.958;10.970;2023-11-19T16:36:20;28.35;;;3.67;;
39822;SDS011;25499;53.958;10.970;2023-11-19T16:38:47;20.58;;;3.25;;
39822;SDS011;25499;53.958;10.970;2023-11-19T16:41:17;23.38;;;3.60;;
39822;SDS011;25499;53.958;10.970;2023-11-19T16:43:46;25.73;;;3.40;;
39822;SDS011;25499;53.958;10.970;2023-11-19T16:46:16;25.67;;;3.30;;
39822;SDS011;25499;53.958;10.970;2023-11-19T16:48:44;29.27;;;3.30;;
39822;SDS011;25499;53.958;10.970;2023-11-19T16:51:13;29.30;;;3.63;;
39822;SDS011;25499;53.958;10.970;2023-11-19T16:53:43;31.48;;;3.05;;
39822;SDS011;25499;53.958;10.970;2023-11-19T16:56:11;26.45;;;3.38;;
39822;SDS011;25499;53.958;10.970;2023-11-19T16:58:38;25.33;;;3.75;;
39822;SDS011;25499;53.958;10.970;2023-11-19T17:01:07;28.65;;;3.72;;
39822;SDS011;25499;53.958;10.970;2023-11-19T17:03:35;20.20;;;3.00;;
39822;SDS011;25499;53.958;10.970;2023-11-19T17:06:02;28.38;;;3.67;;
39822;SDS011;25499;53.958;10.970;2023-11-19T17:08:31;26.15;;;3.70;;
39822;SDS011;25499;53.958;10.970;2023-11-19T17:11:00;31.45;;;4.00;;
39822;SDS011;25499;53.958;10.970;2023-11-19T17:13:27;24.58;;;3.65;;
39822;SDS011;25499;53.958;10.970;2023-11-19T17:16:00;20.90;;;3.28;;
39822;SDS011;25499;53.958;10.970;2023-11-19T17:18:27;27.25;;;4.15;;
39822;SDS011;25499;53.958;10.970;2023-11-19T17:20:54;23.50;;;3.70;;
39822;SDS011;25499;53.958;10.970;2023-11-19T17:23:23;23.30;;;2.92;;
39822;SDS011;25499;53.958;10.970;2023-11-19T17:25:51;23.88;;;3.45;;
39822;SDS011;25499;53.958;10.970;2023-11-19T17:28:18;29.35;;;3.30;;
39822;SDS011;25499;53.958;10.970;2023-11-19T17:30:45;25.00;;;3.67;;
39822;SDS011;25499;53.958;10.970;2023-11-19T17:33:12;23.58;;;3.42;;
39822;SDS011;25499;53.958;10.970;2023-11-19T17:35:39;20.98;;;3.38;;
39822;SDS011;25499;53.958;10.970;2023-11-19T17:38:06;25.75;;;3.47;;
39822;SDS011;25499;53.958;10.970;2023-11-19T17:40:33;18.40;;;3.10;;
39822;SDS011;25499;53.958;10.970;2023-11-19T17:43:01;17.15;;;2.70;;
39822;SDS011;25499;53.958;10.970;2023-11-19T17:45:28;20.13;;;3.00;;
39822;SDS011;25499;53.958;10.970;2023-11-19T17:47:55;17.02;;;2.85;;
39822;SDS011;25499;53.958;10.970;2023-11-19T17:50:22;17.95;;;3.42;;
39822;SDS011;25499;53.958;10.970;2023-11-19T17:52:50;19.77;;;3.35;;
39822;SDS011;25499;53.958;10.970;2023-11-19T17:55:18;16.95;;;2.60;;
39822;SDS011;25499;53.958;10.970;2023-11-19T17:57:45;19.98;;;3.10;;
39822;SDS011;25499;53.958;10.970;2023-11-19T18:00:14;17.88;;;3.47;;
39822;SDS011;25499;53.958;10.970;2023-11-19T18:02:42;20.13;;;3.38;;
39822;SDS011;25499;53.958;10.970;2023-11-19T18:05:10;22.33;;;3.13;;
39822;SDS011;25499;53.958;10.970;2023-11-19T18:07:38;17.73;;;2.78;;
39822;SDS011;25499;53.958;10.970;2023-11-19T18:10:07;20.35;;;2.58;;
39822;SDS011;25499;53.958;10.970;2023-11-19T18:12:35;21.25;;;2.90;;
39822;SDS011;25499;53.958;10.970;2023-11-19T18:15:02;21.70;;;3.13;;
39822;SDS011;25499;53.958;10.970;2023-11-19T18:17:31;17.33;;;3.42;;
39822;SDS011;25499;53.958;10.970;2023-11-19T18:19:58;14.40;;;2.70;;
39822;SDS011;25499;53.958;10.970;2023-11-19T18:22:25;14.38;;;2.78;;
39822;SDS011;25499;53.958;10.970;2023-11-19T18:24:53;19.05;;;3.33;;
39822;SDS011;25499;53.958;10.970;2023-11-19T18:27:19;17.02;;;3.25;;
39822;SDS011;25499;53.958;10.970;2023-11-19T18:29:46;18.15;;;3.42;;
39822;SDS011;25499;53.958;10.970;2023-11-19T18:32:14;19.88;;;3.65;;
39822;SDS011;25499;53.958;10.970;2023-11-19T18:34:42;16.70;;;3.38;;
39822;SDS011;25499;53.958;10.970;2023-11-19T18:37:09;12.75;;;2.67;;
39822;SDS011;25499;53.958;10.970;2023-11-19T18:39:38;15.10;;;3.00;;
39822;SDS011;25499;53.958;10.970;2023-11-19T18:42:06;14.77;;;3.20;;
39822;SDS011;25499;53.958;10.970;2023-11-19T18:44:33;12.90;;;3.35;;
39822;SDS011;25499;53.958;10.970;2023-11-19T18:47:00;19.17;;;3.38;;
39822;SDS011;25499;53.958;10.970;2023-11-19T18:49:27;18.45;;;3.38;;
39822;SDS011;25499;53.958;10.970;2023-11-19T18:51:55;21.15;;;3.22;;
39822;SDS011;25499;53.958;10.970;2023-11-19T18:54:22;22.38;;;4.15;;
39822;SDS011;25499;53.958;10.970;2023-11-19T18:56:48;20.63;;;3.45;;
39822;SDS011;25499;53.958;10.970;2023-11-19T18:59:17;19.52;;;3.50;;
39822;SDS011;25499;53.958;10.970;2023-11-19T19:01:44;20.50;;;3.42;;
39822;SDS011;25499;53.958;10.970;2023-11-19T19:04:11;20.83;;;3.58;;
39822;SDS011;25499;53.958;10.970;2023-11-19T19:06:38;20.95;;;4.20;;
39822;SDS011;25499;53.958;10.970;2023-11-19T19:09:07;17.65;;;3.75;;
39822;SDS011;25499;53.958;10.970;2023-11-19T19:11:34;25.48;;;3.83;;
39822;SDS011;25499;53.958;10.970;2023-11-19T19:14:00;19.15;;;3.75;;
39822;SDS011;25499;53.958;10.970;2023-11-19T19:16:27;25.33;;;3.55;;
39822;SDS011;25499;53.958;10.970;2023-11-19T19:18:54;19.30;;;3.35;;
39822;SDS011;25499;53.958;10.970;2023-11-19T19:21:21;20.27;;;3.45;;
39822;SDS011;25499;53.958;10.970;2023-11-19T19:23:48;27.70;;;4.07;;
39822;SDS011;25499;53.958;10.970;2023-11-19T19:26:16;23.67;;;3.60;;
39822;SDS011;25499;53.958;10.970;2023-11-19T19:28:43;18.00;;;3.38;;
39822;SDS011;25499;53.958;10.970;2023-11-19T19:31:10;25.15;;;3.45;;
39822;SDS011;25499;53.958;10.970;2023-11-19T19:33:42;19.80;;;3.35;;
39822;SDS011;25499;53.958;10.970;2023-11-19T19:36:10;23.60;;;3.85;;
39822;SDS011;25499;53.958;10.970;2023-11-19T19:38:36;17.58;;;3.05;;
39822;SDS011;25499;53.958;10.970;2023-11-19T19:41:04;19.17;;;3.40;;
39822;SDS011;25499;53.958;10.970;2023-11-19T19:43:32;28.30;;;4.10;;
39822;SDS011;25499;53.958;10.970;2023-11-19T19:46:00;15.82;;;3.08;;
39822;SDS011;25499;53.958;10.970;2023-11-19T19:48:27;21.77;;;3.50;;
39822;SDS011;25499;53.958;10.970;2023-11-19T19:50:53;16.75;;;2.88;;
39822;SDS011;25499;53.958;10.970;2023-11-19T19:53:20;20.98;;;3.97;;
39822;SDS011;25499;53.958;10.970;2023-11-19T19:55:47;17.55;;;3.00;;
39822;SDS011;25499;53.958;10.970;2023-11-19T19:58:15;17.17;;;2.97;;
39822;SDS011;25499;53.958;10.970;2023-11-19T20:00:44;18.88;;;3.05;;
39822;SDS011;25499;53.958;10.970;2023-11-19T20:03:12;17.92;;;2.88;;
39822;SDS011;25499;53.958;10.970;2023-11-19T20:05:39;23.20;;;3.10;;
39822;SDS011;25499;53.958;10.970;2023-11-19T20:08:06;19.60;;;3.67;;
39822;SDS011;25499;53.958;10.970;2023-11-19T20:10:33;18.60;;;3.05;;
39822;SDS011;25499;53.958;10.970;2023-11-19T20:13:01;16.15;;;2.97;;
39822;SDS011;25499;53.958;10.970;2023-11-19T20:15:34;21.42;;;3.40;;
39822;SDS011;25499;53.958;10.970;2023-11-19T20:18:03;16.55;;;2.83;;
39822;SDS011;25499;53.958;10.970;2023-11-19T20:20:31;20.38;;;2.70;;
39822;SDS011;25499;53.958;10.970;2023-11-19T20:22:58;15.32;;;2.97;;
39822;SDS011;25499;53.958;10.970;2023-11-19T20:25:24;20.38;;;3.00;;
39822;SDS011;25499;53.958;10.970;2023-11-19T20:27:51;20.33;;;3.08;;
39822;SDS011;25499;53.958;10.970;2023-11-19T20:30:18;16.70;;;3.47;;
39822;SDS011;25499;53.958;10.970;2023-11-19T20:32:46;20.13;;;2.83;;
39822;SDS011;25499;53.958;10.970;2023-11-19T20:35:14;20.02;;;3.70;;
39822;SDS011;25499;53.958;10.970;2023-11-19T20:37:41;23.17;;;3.28;;
39822;SDS011;25499;53.958;10.970;2023-11-19T20:40:09;18.98;;;2.80;;
39822;SDS011;25499;53.958;10.970;2023-11-19T20:42:37;14.77;;;3.15;;
39822;SDS011;25499;53.958;10.970;2023-11-19T20:45:07;17.80;;;2.67;;
39822;SDS011;25499;53.958;10.970;2023-11-19T20:47:34;15.55;;;3.63;;
39822;SDS011;25499;53.958;10.970;2023-11-19T20:50:01;18.08;;;3.00;;
39822;SDS011;25499;53.958;10.970;2023-11-19T20:52:33;14.55;;;2.70;;
39822;SDS011;25499;53.958;10.970;2023-11-19T20:55:02;12.98;;;2.90;;
39822;SDS011;25499;53.958;10.970;2023-11-19T20:57:30;18.95;;;2.88;;
39822;SDS011;25499;53.958;10.970;2023-11-19T20:59:57;13.15;;;2.70;;
39822;SDS011;25499;53.958;10.970;2023-11-19T21:02:24;13.68;;;3.20;;
39822;SDS011;25499;53.958;10.970;2023-11-19T21:04:51;13.70;;;2.83;;
